createdAt,value
2023-05-14T00:00:17.069Z,13.58
2023-05-14T00:03:18.932Z,13.61
2023-05-14T00:06:20.934Z,13.55
2023-05-14T00:09:22.853Z,13.55
2023-05-14T00:12:26.395Z,13.56
2023-05-14T00:15:28.280Z,13.54
2023-05-14T00:18:30.148Z,13.52
2023-05-14T00:21:32.420Z,13.46
2023-05-14T00:24:35.156Z,13.37
2023-05-14T00:27:37.966Z,13.31
2023-05-14T00:30:40.028Z,13.26
2023-05-14T00:33:41.865Z,13.20
2023-05-14T00:36:43.801Z,13.20
2023-05-14T00:39:45.682Z,13.20
2023-05-14T00:42:47.542Z,13.16
2023-05-14T00:45:54.534Z,13.18
2023-05-14T00:48:57.318Z,13.15
2023-05-14T00:52:00.501Z,13.09
2023-05-14T00:55:06.162Z,13.06
2023-05-14T00:58:11.138Z,13.06
2023-05-14T01:01:15.327Z,13.04
2023-05-14T01:04:17.881Z,12.97
2023-05-14T01:07:35.030Z,12.93
2023-05-14T01:10:50.018Z,12.86
2023-05-14T01:14:22.012Z,12.76
2023-05-14T01:17:28.721Z,12.69
2023-05-14T01:20:30.697Z,12.67
2023-05-14T01:23:32.633Z,12.65
2023-05-14T01:26:35.741Z,12.64
2023-05-14T01:29:43.160Z,12.64
2023-05-14T01:32:50.532Z,12.62
2023-05-14T01:35:54.296Z,12.63
2023-05-14T01:38:57.062Z,12.62
2023-05-14T01:42:00.185Z,12.64
2023-05-14T01:45:03.464Z,12.65
2023-05-14T01:48:06.325Z,12.65
2023-05-14T01:51:08.680Z,12.65
2023-05-14T01:54:10.641Z,12.69
2023-05-14T01:57:12.462Z,12.71
2023-05-14T02:00:14.552Z,12.72
2023-05-14T02:03:16.397Z,12.71
2023-05-14T02:06:18.288Z,12.71
2023-05-14T02:09:20.172Z,12.70
2023-05-14T02:12:22.476Z,12.71
2023-05-14T02:15:24.387Z,12.71
2023-05-14T02:18:26.271Z,12.68
2023-05-14T02:21:28.200Z,12.70
2023-05-14T02:24:30.172Z,12.73
2023-05-14T02:27:32.084Z,12.76
2023-05-14T02:30:34.005Z,12.80
2023-05-14T02:33:36.032Z,12.84
2023-05-14T02:36:38.017Z,12.90
2023-05-14T02:39:39.934Z,12.94
2023-05-14T02:42:41.987Z,12.99
2023-05-14T02:45:43.882Z,13.04
2023-05-14T02:48:45.841Z,13.10
2023-05-14T02:51:47.665Z,13.14
2023-05-14T02:54:49.602Z,13.23
2023-05-14T02:57:53.271Z,13.32
2023-05-14T03:00:55.732Z,13.40
2023-05-14T03:03:58.239Z,13.49
2023-05-14T03:07:00.117Z,13.51
2023-05-14T03:10:02.042Z,13.66
2023-05-14T03:13:03.865Z,13.78
2023-05-14T03:16:06.042Z,13.89
2023-05-14T03:19:09.694Z,13.92
2023-05-14T03:22:11.606Z,14.03
2023-05-14T03:25:13.559Z,14.07
2023-05-14T03:28:15.478Z,14.13
2023-05-14T03:31:17.535Z,14.30
2023-05-14T03:34:19.526Z,14.44
2023-05-14T03:37:21.448Z,14.60
2023-05-14T03:40:23.484Z,14.70
2023-05-14T03:43:26.402Z,14.85
2023-05-14T03:46:28.420Z,15.01
2023-05-14T03:49:31.563Z,15.14
2023-05-14T03:52:33.695Z,15.25
2023-05-14T03:55:37.862Z,15.51
2023-05-14T03:58:40.750Z,15.91
2023-05-14T04:01:43.789Z,16.21
2023-05-14T04:04:45.707Z,16.34
2023-05-14T04:07:47.629Z,16.49
2023-05-14T04:10:50.287Z,16.40
2023-05-14T04:13:52.249Z,16.55
2023-05-14T04:16:54.261Z,16.53
2023-05-14T04:19:56.540Z,16.47
2023-05-14T04:22:59.422Z,16.79
2023-05-14T04:26:01.322Z,17.18
2023-05-14T04:29:03.518Z,17.26
2023-05-14T04:32:05.828Z,17.08
2023-05-14T04:35:09.363Z,17.09
2023-05-14T04:38:11.521Z,16.99
2023-05-14T04:41:13.454Z,17.42
2023-05-14T04:44:15.935Z,17.72
2023-05-14T04:47:18.035Z,18.16
2023-05-14T04:50:19.933Z,18.54
2023-05-14T04:53:21.820Z,18.83
2023-05-14T04:56:23.746Z,19.22
2023-05-14T04:59:25.609Z,19.63
2023-05-14T05:02:27.602Z,19.65
2023-05-14T05:05:29.527Z,19.95
2023-05-14T05:08:31.411Z,20.07
2023-05-14T05:11:33.346Z,20.11
2023-05-14T05:14:35.194Z,19.98
2023-05-14T05:17:37.383Z,20.11
2023-05-14T05:20:39.347Z,20.39
2023-05-14T05:23:41.235Z,20.51
2023-05-14T05:26:43.123Z,20.73
2023-05-14T05:29:44.991Z,20.99
2023-05-14T05:32:46.926Z,21.29
2023-05-14T05:35:50.184Z,21.44
2023-05-14T05:38:52.047Z,21.37
2023-05-14T05:41:54.388Z,21.57
2023-05-14T05:44:56.445Z,22.02
2023-05-14T05:47:58.349Z,22.18
2023-05-14T05:51:00.417Z,22.36
2023-05-14T05:54:02.338Z,22.39
2023-05-14T05:57:04.411Z,22.70
2023-05-14T06:00:13.369Z,22.76
2023-05-14T06:03:15.278Z,22.85
2023-05-14T06:06:17.189Z,22.98
2023-05-14T06:09:19.040Z,23.34
2023-05-14T06:12:21.852Z,23.71
2023-05-14T06:15:23.882Z,23.99
2023-05-14T06:18:25.809Z,24.15
2023-05-14T06:21:27.798Z,24.45
2023-05-14T06:24:29.587Z,24.18
2023-05-14T06:27:31.382Z,24.39
2023-05-14T06:30:33.291Z,24.52
2023-05-14T06:33:35.173Z,24.39
2023-05-14T06:36:37.097Z,24.76
2023-05-14T06:39:39.365Z,25.09
2023-05-14T06:42:41.249Z,25.51
2023-05-14T06:45:44.255Z,25.77
2023-05-14T06:48:46.218Z,26.09
2023-05-14T06:51:48.052Z,26.15
2023-05-14T06:54:49.906Z,26.37
2023-05-14T06:57:51.879Z,26.49
2023-05-14T07:00:53.789Z,26.41
2023-05-14T07:03:55.737Z,26.40
2023-05-14T07:06:57.658Z,26.54
2023-05-14T07:09:59.578Z,26.80
2023-05-14T07:13:01.486Z,27.20
2023-05-14T07:16:03.395Z,26.82
2023-05-14T07:19:05.215Z,26.26
2023-05-14T07:22:07.126Z,25.93
2023-05-14T07:25:09.138Z,25.75
2023-05-14T07:28:10.909Z,25.54
2023-05-14T07:31:12.785Z,25.52
2023-05-14T07:34:14.730Z,25.30
2023-05-14T07:37:16.816Z,25.13
2023-05-14T07:40:18.695Z,24.87
2023-05-14T07:43:20.727Z,24.81
2023-05-14T07:46:23.979Z,25.04
2023-05-14T07:49:25.950Z,25.25
2023-05-14T07:52:27.867Z,25.61
2023-05-14T07:55:29.796Z,26.23
2023-05-14T07:58:31.989Z,26.77
2023-05-14T08:01:33.806Z,27.20
2023-05-14T08:04:36.260Z,27.69
2023-05-14T08:07:38.343Z,27.95
2023-05-14T08:10:40.382Z,27.72
2023-05-14T08:13:42.218Z,28.22
2023-05-14T08:16:44.196Z,28.32
2023-05-14T08:19:46.998Z,28.01
2023-05-14T08:22:48.819Z,27.60
2023-05-14T08:25:50.915Z,27.47
2023-05-14T08:28:54.712Z,27.85
2023-05-14T08:31:58.018Z,27.47
2023-05-14T08:35:00.166Z,28.26
2023-05-14T08:38:02.002Z,28.49
2023-05-14T08:41:06.520Z,28.64
2023-05-14T08:44:27.219Z,28.95
2023-05-14T08:47:30.937Z,29.22
2023-05-14T08:50:33.171Z,28.64
2023-05-14T08:53:36.022Z,28.66
2023-05-14T08:56:39.982Z,28.63
2023-05-14T08:59:41.945Z,28.91
2023-05-14T09:02:44.862Z,28.81
2023-05-14T09:05:49.354Z,28.35
2023-05-14T09:08:51.757Z,28.04
2023-05-14T09:11:54.003Z,27.72
2023-05-14T09:14:56.025Z,27.42
2023-05-14T09:17:58.273Z,26.86
2023-05-14T09:21:01.371Z,26.72
2023-05-14T09:24:04.102Z,26.33
2023-05-14T09:27:07.002Z,25.80
2023-05-14T09:30:13.562Z,25.80
2023-05-14T09:33:26.340Z,25.74
2023-05-14T09:36:28.397Z,25.78
2023-05-14T09:39:33.724Z,25.82
2023-05-14T09:42:35.791Z,25.84
2023-05-14T09:45:37.616Z,25.81
2023-05-14T09:48:39.691Z,25.86
2023-05-14T09:51:41.973Z,25.98
2023-05-14T09:54:44.395Z,26.11
2023-05-14T09:57:46.470Z,26.14
2023-05-14T10:00:49.056Z,26.12
2023-05-14T10:03:52.855Z,26.15
2023-05-14T10:06:56.303Z,26.24
2023-05-14T10:10:02.926Z,26.90
2023-05-14T10:13:17.019Z,27.35
2023-05-14T10:16:32.218Z,27.80
2023-05-14T10:19:37.374Z,28.11
2023-05-14T10:22:39.763Z,28.39
2023-05-14T10:25:42.450Z,28.80
2023-05-14T10:28:45.042Z,29.04
2023-05-14T10:31:51.836Z,29.20
2023-05-14T10:34:54.184Z,29.58
2023-05-14T10:37:56.996Z,30.00
2023-05-14T10:41:04.452Z,30.06
2023-05-14T10:44:09.565Z,30.17
2023-05-14T10:47:11.852Z,30.39
2023-05-14T10:50:17.789Z,30.24
2023-05-14T10:53:20.059Z,29.47
2023-05-14T10:56:22.339Z,28.85
2023-05-14T10:59:28.146Z,28.18
2023-05-14T11:02:38.629Z,27.49
2023-05-14T11:05:41.100Z,26.95
2023-05-14T11:08:44.648Z,26.56
2023-05-14T11:11:47.747Z,26.42
2023-05-14T11:14:50.851Z,26.48
2023-05-14T11:17:54.157Z,27.10
2023-05-14T11:21:00.900Z,27.34
2023-05-14T11:24:05.041Z,27.73
2023-05-14T11:27:11.013Z,27.84
2023-05-14T11:30:22.096Z,27.65
2023-05-14T11:33:24.032Z,27.76
2023-05-14T11:36:25.896Z,27.82
2023-05-14T11:39:27.748Z,27.81
2023-05-14T11:42:29.554Z,28.28
2023-05-14T11:45:33.118Z,28.41
2023-05-14T11:48:35.073Z,28.47
2023-05-14T11:51:36.963Z,28.33
2023-05-14T11:54:38.769Z,28.40
2023-05-14T11:57:41.265Z,28.67
2023-05-14T12:00:45.649Z,28.78
2023-05-14T12:03:47.655Z,28.81
2023-05-14T12:06:53.432Z,28.86
2023-05-14T12:09:55.373Z,28.75
2023-05-14T12:12:57.308Z,28.85
2023-05-14T12:16:02.188Z,28.82
2023-05-14T12:19:04.230Z,28.32
2023-05-14T12:22:06.364Z,27.72
2023-05-14T12:25:16.169Z,27.19
2023-05-14T12:28:19.246Z,26.99
2023-05-14T12:31:28.692Z,27.40
2023-05-14T12:34:30.703Z,27.63
2023-05-14T12:41:23.936Z,27.00
2023-05-14T12:44:25.706Z,26.62
2023-05-14T12:47:27.588Z,26.48
2023-05-14T12:50:29.438Z,26.28
2023-05-14T12:53:31.482Z,26.24
2023-05-14T12:56:33.445Z,25.99
2023-05-14T12:59:35.236Z,26.00
2023-05-14T13:02:42.275Z,26.06
2023-05-14T13:05:45.086Z,26.21
2023-05-14T13:08:46.963Z,26.49
2023-05-14T13:11:48.836Z,26.72
2023-05-14T13:14:50.829Z,27.14
2023-05-14T13:17:52.771Z,27.43
2023-05-14T13:20:54.724Z,27.56
2023-05-14T13:23:56.606Z,27.73
2023-05-14T13:26:58.334Z,27.57
2023-05-14T13:30:00.322Z,27.66
2023-05-14T13:33:02.326Z,27.77
2023-05-14T13:36:04.845Z,27.82
2023-05-14T13:39:07.203Z,27.83
2023-05-14T13:42:09.197Z,27.62
2023-05-14T13:45:13.089Z,27.59
2023-05-14T13:48:14.988Z,27.36
2023-05-14T13:51:16.790Z,26.91
2023-05-14T13:54:18.688Z,26.70
2023-05-14T13:57:21.519Z,26.87
2023-05-14T14:00:23.464Z,27.21
2023-05-14T14:03:25.276Z,27.44
2023-05-14T14:06:30.104Z,27.57
2023-05-14T14:09:35.170Z,27.62
2023-05-14T14:12:37.339Z,27.64
2023-05-14T14:15:39.233Z,27.70
2023-05-14T14:18:41.510Z,27.90
2023-05-14T14:21:43.305Z,27.87
2023-05-14T14:24:45.229Z,27.68
2023-05-14T14:27:48.034Z,27.65
2023-05-14T14:30:51.067Z,27.65
2023-05-14T14:33:52.885Z,27.49
2023-05-14T14:36:54.808Z,27.48
2023-05-14T14:39:56.620Z,27.44
2023-05-14T14:42:58.592Z,27.48
2023-05-14T14:46:00.782Z,27.50
2023-05-14T14:49:02.656Z,27.67
2023-05-14T14:52:04.736Z,27.75
2023-05-14T14:55:07.835Z,27.76
2023-05-14T14:58:09.690Z,27.77
2023-05-14T15:01:11.523Z,27.71
2023-05-14T15:04:13.401Z,27.72
2023-05-14T15:07:18.778Z,27.42
2023-05-14T15:10:20.601Z,27.28
2023-05-14T15:13:22.990Z,27.08
2023-05-14T15:16:24.910Z,26.85
2023-05-14T15:19:26.772Z,26.61
2023-05-14T15:22:28.641Z,26.38
2023-05-14T15:25:30.558Z,26.04
2023-05-14T15:28:32.309Z,25.82
2023-05-14T15:31:34.754Z,25.66
2023-05-14T15:34:36.734Z,25.53
2023-05-14T15:37:39.587Z,25.39
2023-05-14T15:40:41.703Z,25.29
2023-05-14T15:43:43.586Z,25.17
2023-05-14T15:46:45.582Z,25.01
2023-05-14T15:49:47.467Z,24.77
2023-05-14T15:52:49.446Z,24.57
2023-05-14T15:55:51.461Z,24.47
2023-05-14T15:58:53.358Z,24.39
2023-05-14T16:01:55.303Z,24.30
2023-05-14T16:04:57.119Z,24.17
2023-05-14T16:07:59.263Z,24.12
2023-05-14T16:11:01.079Z,24.04
2023-05-14T16:14:03.079Z,23.90
2023-05-14T16:17:04.941Z,23.71
2023-05-14T16:20:07.435Z,23.75
2023-05-14T16:23:09.262Z,23.74
2023-05-14T16:26:11.240Z,23.73
2023-05-14T16:29:13.213Z,23.70
2023-05-14T16:32:15.161Z,23.59
2023-05-14T16:35:17.030Z,23.42
2023-05-14T16:38:27.778Z,23.26
2023-05-14T16:41:30.067Z,23.06
2023-05-14T16:44:31.951Z,22.90
2023-05-14T16:47:33.857Z,22.76
2023-05-14T16:50:35.885Z,22.58
2023-05-14T16:53:37.782Z,22.42
2023-05-14T16:56:39.799Z,22.21
2023-05-14T16:59:41.737Z,21.98
2023-05-14T17:02:44.120Z,21.71
2023-05-14T17:05:46.329Z,21.59
2023-05-14T17:08:48.053Z,21.35
2023-05-14T17:11:50.001Z,21.20
2023-05-14T17:14:52.168Z,20.93
2023-05-14T17:17:54.819Z,20.73
2023-05-14T17:20:56.791Z,20.54
2023-05-14T17:23:58.964Z,20.36
2023-05-14T17:27:00.822Z,20.22
2023-05-14T17:30:03.756Z,20.03
2023-05-14T17:33:05.828Z,19.84
2023-05-14T17:36:08.078Z,19.67
2023-05-14T17:39:09.929Z,19.41
2023-05-14T17:42:11.858Z,19.22
2023-05-14T17:45:14.612Z,19.06
2023-05-14T17:48:16.603Z,18.97
2023-05-14T17:51:19.126Z,18.83
2023-05-14T17:54:20.982Z,18.73
2023-05-14T17:57:22.992Z,18.67
2023-05-14T18:00:25.035Z,18.62
2023-05-14T18:03:27.048Z,18.45
2023-05-14T18:06:29.212Z,18.29
2023-05-14T18:09:31.048Z,18.20
2023-05-14T18:12:33.962Z,18.09
2023-05-14T18:15:37.226Z,18.02
2023-05-14T18:18:39.333Z,17.81
2023-05-14T18:21:42.170Z,17.64
2023-05-14T18:24:45.019Z,17.52
2023-05-14T18:27:47.147Z,17.44
2023-05-14T18:30:52.246Z,17.33
2023-05-14T18:33:54.479Z,17.26
2023-05-14T18:36:56.381Z,17.17
2023-05-14T18:39:58.254Z,17.06
2023-05-14T18:43:00.073Z,16.99
2023-05-14T18:46:02.069Z,16.89
2023-05-14T18:49:05.760Z,16.80
2023-05-14T18:52:07.559Z,16.62
2023-05-14T18:55:09.683Z,16.54
2023-05-14T18:58:12.163Z,16.49
2023-05-14T19:01:14.128Z,16.42
2023-05-14T19:04:16.209Z,16.30
2023-05-14T19:07:18.156Z,16.27
2023-05-14T19:10:20.063Z,16.19
2023-05-14T19:13:21.927Z,16.16
2023-05-14T19:16:24.333Z,16.07
2023-05-14T19:19:26.326Z,16.00
2023-05-14T19:22:28.268Z,15.89
2023-05-14T19:25:30.264Z,15.80
2023-05-14T19:28:32.587Z,15.76
2023-05-14T19:31:34.514Z,15.70
2023-05-14T19:34:36.665Z,15.64
2023-05-14T19:37:38.598Z,15.52
2023-05-14T19:40:42.969Z,15.50
2023-05-14T19:43:45.505Z,15.38
2023-05-14T19:46:47.571Z,15.27
2023-05-14T19:49:49.499Z,15.16
2023-05-14T19:52:51.486Z,15.12
2023-05-14T19:55:53.403Z,15.09
2023-05-14T19:58:55.351Z,14.98
2023-05-14T20:01:58.236Z,14.83
2023-05-14T20:05:00.214Z,14.76
2023-05-14T20:08:02.718Z,14.76
2023-05-14T20:11:04.731Z,14.68
2023-05-14T20:14:06.568Z,14.62
2023-05-14T20:17:08.677Z,14.59
2023-05-14T20:20:12.111Z,14.54
2023-05-14T20:23:14.061Z,14.49
2023-05-14T20:26:16.308Z,14.38
2023-05-14T20:29:18.197Z,14.30
2023-05-14T20:32:24.918Z,14.23
2023-05-14T20:35:27.314Z,14.23
2023-05-14T20:38:31.297Z,14.23
2023-05-14T20:41:33.231Z,14.18
2023-05-14T20:44:35.039Z,14.13
2023-05-14T20:47:37.104Z,14.06
2023-05-14T20:50:38.978Z,14.01
2023-05-14T20:53:40.837Z,13.96
2023-05-14T20:56:42.800Z,13.92
2023-05-14T20:59:45.865Z,13.89
2023-05-14T21:02:49.349Z,13.87
2023-05-14T21:05:52.585Z,13.82
2023-05-14T21:08:54.522Z,13.80
2023-05-14T21:11:56.445Z,13.77
2023-05-14T21:14:58.329Z,13.76
2023-05-14T21:18:01.955Z,13.72
2023-05-14T21:21:04.165Z,13.70
2023-05-14T21:24:06.427Z,13.71
2023-05-14T21:27:08.294Z,13.67
2023-05-14T21:30:10.949Z,13.63
2023-05-14T21:33:12.898Z,13.60
2023-05-14T21:36:14.994Z,13.56
2023-05-14T21:39:16.836Z,13.52
2023-05-14T21:42:21.057Z,13.50
2023-05-14T21:45:23.684Z,13.46
2023-05-14T21:48:26.164Z,13.42
2023-05-14T21:51:28.206Z,13.39
2023-05-14T21:54:30.177Z,13.34
2023-05-14T21:57:34.470Z,13.25
2023-05-14T22:00:36.635Z,13.23
2023-05-14T22:03:38.698Z,13.17
2023-05-14T22:06:40.990Z,13.08
2023-05-14T22:09:42.841Z,12.99
2023-05-14T22:12:45.997Z,12.98
2023-05-14T22:15:48.458Z,12.99
2023-05-14T22:18:51.611Z,12.97
2023-05-14T22:21:54.034Z,12.92
2023-05-14T22:24:56.138Z,12.86
2023-05-14T22:27:58.074Z,12.81
2023-05-14T22:31:00.010Z,12.69
2023-05-14T22:34:02.004Z,12.67
2023-05-14T22:37:04.175Z,12.67
2023-05-14T22:40:07.460Z,12.65
2023-05-14T22:43:09.320Z,12.59
2023-05-14T22:46:11.223Z,12.53
2023-05-14T22:49:13.601Z,12.45
2023-05-14T22:52:15.643Z,12.40
2023-05-14T22:55:17.629Z,12.33
2023-05-14T22:58:20.363Z,12.29
2023-05-14T23:01:22.149Z,12.24
2023-05-14T23:04:24.065Z,12.28
2023-05-14T23:07:25.997Z,12.25
2023-05-14T23:10:28.060Z,12.22
2023-05-14T23:13:29.987Z,12.17
2023-05-14T23:16:32.044Z,12.16
2023-05-14T23:19:34.033Z,12.09
2023-05-14T23:22:35.933Z,12.04
2023-05-14T23:25:38.446Z,12.05
2023-05-14T23:28:40.289Z,12.04
2023-05-14T23:31:43.736Z,12.04
2023-05-14T23:34:45.751Z,11.98
2023-05-14T23:37:49.576Z,11.97
2023-05-14T23:40:51.567Z,11.98
2023-05-14T23:43:55.415Z,11.99
2023-05-14T23:46:57.454Z,11.99
2023-05-14T23:49:59.476Z,11.99
2023-05-14T23:53:01.382Z,11.99
2023-05-14T23:56:03.261Z,11.97
2023-05-14T23:59:05.476Z,11.94
